createdAt,value
2018-06-17T00:00:07.980Z,16.70
2018-06-17T00:02:37.414Z,16.70
2018-06-17T00:05:07.060Z,16.40
2018-06-17T00:07:36.315Z,16.10
2018-06-17T00:10:06.139Z,16.20
2018-06-17T00:12:35.572Z,16.40
2018-06-17T00:15:04.807Z,16.50
2018-06-17T00:17:34.011Z,16.20
2018-06-17T00:20:03.247Z,15.90
2018-06-17T00:22:32.626Z,15.60
2018-06-17T00:25:01.804Z,15.80
2018-06-17T00:27:30.991Z,16.20
2018-06-17T00:30:00.273Z,16.40
2018-06-17T00:32:29.463Z,16.50
2018-06-17T00:37:27.394Z,16.20
2018-06-17T00:39:56.656Z,16.30
2018-06-17T00:42:25.846Z,16.10
2018-06-17T00:44:55.046Z,15.70
2018-06-17T00:47:24.236Z,15.70
2018-06-17T00:49:53.468Z,15.60
2018-06-17T00:52:22.631Z,15.80
2018-06-17T00:54:51.843Z,15.90
2018-06-17T00:57:32.247Z,15.60
2018-06-17T01:00:01.574Z,15.50
2018-06-17T01:02:30.781Z,15.40
2018-06-17T01:05:00.021Z,15.50
2018-06-17T01:07:29.207Z,15.80
2018-06-17T01:09:58.430Z,16.00
2018-06-17T01:12:27.633Z,16.10
2018-06-17T01:14:56.879Z,16.00
2018-06-17T01:17:26.226Z,15.60
2018-06-17T01:19:55.551Z,15.50
2018-06-17T01:24:53.798Z,15.30
2018-06-17T01:27:22.987Z,15.60
2018-06-17T01:29:52.289Z,15.80
2018-06-17T01:32:21.495Z,15.50
2018-06-17T01:34:50.935Z,15.60
2018-06-17T01:37:20.500Z,15.60
2018-06-17T01:39:49.659Z,15.70
2018-06-17T01:42:18.879Z,15.70
2018-06-17T01:44:48.083Z,15.60
2018-06-17T01:47:17.265Z,15.50
2018-06-17T01:49:46.470Z,15.40
2018-06-17T01:52:15.686Z,15.70
2018-06-17T01:54:44.890Z,15.70
2018-06-17T01:57:14.086Z,15.70
2018-06-17T01:59:43.514Z,15.80
2018-06-17T02:02:12.928Z,15.70
2018-06-17T02:04:47.543Z,15.10
2018-06-17T02:07:22.126Z,14.80
2018-06-17T02:09:56.708Z,15.10
2018-06-17T02:12:25.903Z,15.10
2018-06-17T02:14:56.319Z,15.20
2018-06-17T02:17:26.425Z,15.40
2018-06-17T02:19:56.026Z,15.40
2018-06-17T02:22:25.511Z,15.50
2018-06-17T02:24:55.142Z,15.60
2018-06-17T02:27:24.335Z,15.50
2018-06-17T02:29:53.470Z,15.30
2018-06-17T02:32:22.743Z,15.30
2018-06-17T02:34:51.922Z,15.20
2018-06-17T02:37:21.084Z,15.30
2018-06-17T02:39:50.246Z,15.30
2018-06-17T02:42:19.491Z,15.20
2018-06-17T02:44:52.867Z,15.20
2018-06-17T02:47:27.294Z,15.20
2018-06-17T02:50:00.801Z,15.10
2018-06-17T02:52:35.465Z,15.10
2018-06-17T02:55:04.685Z,15.10
2018-06-17T02:57:33.967Z,15.10
2018-06-17T03:00:03.286Z,15.20
2018-06-17T03:02:32.483Z,15.10
2018-06-17T03:05:01.645Z,15.00
2018-06-17T03:07:30.831Z,15.10
2018-06-17T03:09:59.990Z,14.70
2018-06-17T03:12:29.171Z,14.30
2018-06-17T03:14:58.435Z,14.40
2018-06-17T03:17:27.668Z,14.80
2018-06-17T03:19:56.835Z,14.90
2018-06-17T03:22:26.104Z,15.00
2018-06-17T03:25:00.560Z,14.70
2018-06-17T03:27:35.042Z,14.60
2018-06-17T03:30:09.983Z,14.60
2018-06-17T03:32:44.559Z,14.80
2018-06-17T03:36:19.976Z,14.80
2018-06-17T03:38:49.309Z,14.80
2018-06-17T03:41:18.519Z,14.80
2018-06-17T03:43:47.691Z,14.50
2018-06-17T03:46:17.459Z,14.30
2018-06-17T03:48:46.624Z,14.50
2018-06-17T03:51:15.818Z,14.40
2018-06-17T03:53:45.016Z,14.70
2018-06-17T03:56:14.231Z,14.90
2018-06-17T03:58:43.434Z,14.90
2018-06-17T04:01:12.615Z,14.90
2018-06-17T04:03:41.823Z,14.90
2018-06-17T04:06:11.068Z,14.60
2018-06-17T04:11:09.037Z,14.60
2018-06-17T04:13:38.230Z,14.90
2018-06-17T04:16:07.562Z,15.10
2018-06-17T04:18:36.766Z,15.10
2018-06-17T04:21:05.986Z,15.20
2018-06-17T04:23:35.193Z,15.10
2018-06-17T04:28:33.142Z,15.40
2018-06-17T04:31:02.426Z,15.50
2018-06-17T04:33:32.196Z,15.60
2018-06-17T04:36:01.361Z,15.50
2018-06-17T04:38:30.571Z,15.50
2018-06-17T04:40:59.823Z,15.70
2018-06-17T04:43:29.014Z,15.90
2018-06-17T04:45:58.196Z,16.00
2018-06-17T04:48:27.397Z,16.20
2018-06-17T04:50:56.574Z,16.30
2018-06-17T04:53:25.762Z,16.10
2018-06-17T04:55:54.923Z,15.90
2018-06-17T04:58:24.135Z,15.90
2018-06-17T05:00:53.353Z,16.00
2018-06-17T05:03:22.547Z,16.30
2018-06-17T05:05:51.711Z,16.50
2018-06-17T05:08:20.891Z,16.60
2018-06-17T05:10:50.158Z,16.60
2018-06-17T05:13:19.340Z,16.60
2018-06-17T05:15:48.565Z,16.70
2018-06-17T05:20:47.042Z,16.80
2018-06-17T05:25:48.454Z,16.80
2018-06-17T05:28:18.574Z,16.80
2018-06-17T05:30:47.907Z,16.70
2018-06-17T05:33:17.071Z,16.80
2018-06-17T05:35:46.359Z,17.00
2018-06-17T05:38:15.654Z,17.00
2018-06-17T05:40:45.118Z,17.00
2018-06-17T05:43:14.403Z,17.00
2018-06-17T05:45:43.654Z,17.10
2018-06-17T05:48:12.952Z,17.50
2018-06-17T05:53:10.992Z,18.00
2018-06-17T05:55:40.212Z,18.20
2018-06-17T05:58:09.395Z,18.30
2018-06-17T06:00:38.856Z,18.40
2018-06-17T06:03:08.076Z,18.30
2018-06-17T06:05:37.280Z,18.40
2018-06-17T06:08:06.470Z,18.40
2018-06-17T06:10:35.658Z,18.50
2018-06-17T06:13:04.857Z,18.60
2018-06-17T06:15:34.104Z,18.70
2018-06-17T06:18:03.300Z,18.70
2018-06-17T06:20:32.509Z,18.80
2018-06-17T06:23:01.699Z,18.90
2018-06-17T06:25:30.895Z,19.10
2018-06-17T06:28:00.147Z,19.40
2018-06-17T06:30:29.428Z,19.50
2018-06-17T06:32:58.667Z,19.50
2018-06-17T06:35:27.891Z,19.50
2018-06-17T06:37:57.703Z,19.40
2018-06-17T06:40:26.955Z,19.40
2018-06-17T06:42:56.354Z,19.40
2018-06-17T06:45:25.555Z,19.30
2018-06-17T06:47:54.927Z,19.40
2018-06-17T06:50:24.147Z,19.60
2018-06-17T06:52:53.351Z,19.80
2018-06-17T06:55:22.564Z,19.90
2018-06-17T06:57:51.738Z,20.10
2018-06-17T07:00:21.339Z,20.20
2018-06-17T07:04:00.796Z,20.20
2018-06-17T07:06:41.062Z,20.40
2018-06-17T07:09:21.527Z,20.80
2018-06-17T07:11:50.763Z,21.00
2018-06-17T07:14:20.182Z,21.00
2018-06-17T07:17:00.828Z,20.80
2018-06-17T07:19:29.992Z,20.80
2018-06-17T07:21:59.200Z,20.80
2018-06-17T07:24:28.360Z,21.00
2018-06-17T07:27:08.854Z,21.30
2018-06-17T07:29:45.067Z,21.40
2018-06-17T07:32:14.310Z,21.70
2018-06-17T07:34:43.483Z,21.90
2018-06-17T07:37:13.279Z,21.90
2018-06-17T07:39:52.483Z,21.80
2018-06-17T07:42:21.691Z,21.90
2018-06-17T07:44:50.871Z,21.90
2018-06-17T07:47:20.062Z,21.90
2018-06-17T07:50:00.449Z,21.70
2018-06-17T07:53:43.926Z,21.80
2018-06-17T07:56:13.128Z,21.70
2018-06-17T07:58:42.343Z,21.50
2018-06-17T08:01:11.523Z,21.40
2018-06-17T08:03:40.711Z,21.40
2018-06-17T08:06:09.914Z,21.40
2018-06-17T08:08:39.127Z,21.40
2018-06-17T08:11:08.356Z,21.70
2018-06-17T08:13:37.564Z,22.20
2018-06-17T08:16:06.788Z,22.50
2018-06-17T08:18:36.874Z,22.70
2018-06-17T08:21:06.947Z,22.70
2018-06-17T08:26:04.884Z,22.50
2018-06-17T08:28:34.079Z,22.60
2018-06-17T08:31:03.307Z,22.70
2018-06-17T08:33:32.502Z,22.70
2018-06-17T08:36:01.680Z,22.70
2018-06-17T08:38:30.887Z,23.00
2018-06-17T08:41:00.057Z,23.10
2018-06-17T08:43:29.252Z,23.00
2018-06-17T08:45:59.047Z,23.00
2018-06-17T08:48:28.260Z,23.00
2018-06-17T08:50:57.456Z,23.10
2018-06-17T08:53:26.680Z,23.30
2018-06-17T08:55:55.877Z,23.60
2018-06-17T08:58:25.874Z,23.70
2018-06-17T09:00:55.853Z,23.70
2018-06-17T09:03:26.868Z,23.60
2018-06-17T09:05:57.246Z,23.60
2018-06-17T09:08:26.491Z,23.20
2018-06-17T09:10:55.791Z,22.80
2018-06-17T09:13:24.971Z,22.50
2018-06-17T09:15:54.999Z,22.40
2018-06-17T09:18:24.351Z,22.30
2018-06-17T09:20:53.609Z,22.20
2018-06-17T09:23:22.953Z,22.00
2018-06-17T09:25:52.172Z,22.00
2018-06-17T09:28:21.341Z,22.20
2018-06-17T09:30:50.550Z,22.30
2018-06-17T09:33:19.683Z,22.20
2018-06-17T09:35:48.951Z,22.00
2018-06-17T09:38:18.170Z,21.90
2018-06-17T09:40:47.454Z,22.00
2018-06-17T09:43:16.615Z,22.00
2018-06-17T09:45:45.787Z,22.20
2018-06-17T09:48:14.935Z,22.30
2018-06-17T09:50:44.126Z,22.60
2018-06-17T09:53:14.216Z,22.80
2018-06-17T09:55:43.391Z,23.00
2018-06-17T09:58:12.531Z,23.00
2018-06-17T10:00:41.863Z,22.80
2018-06-17T10:03:11.012Z,22.50
2018-06-17T10:05:40.221Z,22.30
2018-06-17T10:08:09.401Z,22.50
2018-06-17T10:10:48.163Z,22.80
2018-06-17T10:13:17.838Z,23.00
2018-06-17T10:15:47.677Z,23.30
2018-06-17T10:18:17.552Z,23.30
2018-06-17T10:20:46.767Z,24.10
2018-06-17T10:23:16.664Z,24.90
2018-06-17T10:25:45.878Z,25.40
2018-06-17T10:28:15.566Z,25.40
2018-06-17T10:30:47.152Z,25.20
2018-06-17T10:33:16.323Z,25.20
2018-06-17T10:35:46.026Z,25.20
2018-06-17T10:38:15.248Z,25.10
2018-06-17T10:40:45.157Z,24.90
2018-06-17T10:43:18.980Z,25.00
2018-06-17T10:45:48.159Z,24.80
2018-06-17T10:48:17.344Z,24.70
2018-06-17T10:50:46.523Z,24.60
2018-06-17T10:53:15.715Z,24.50
2018-06-17T10:55:44.995Z,24.40
2018-06-17T10:58:14.107Z,24.20
2018-06-17T11:00:43.256Z,24.30
2018-06-17T11:03:12.428Z,24.60
2018-06-17T11:05:41.640Z,24.50
2018-06-17T11:08:10.807Z,24.90
2018-06-17T11:10:40.112Z,25.50
2018-06-17T11:13:09.298Z,25.80
2018-06-17T11:15:38.515Z,25.40
2018-06-17T11:18:07.719Z,25.50
2018-06-17T11:20:36.971Z,25.80
2018-06-17T11:23:06.173Z,26.10
2018-06-17T11:25:35.788Z,26.00
2018-06-17T11:28:04.978Z,25.40
2018-06-17T11:30:34.175Z,24.80
2018-06-17T11:33:03.385Z,25.20
2018-06-17T11:35:32.604Z,25.50
2018-06-17T11:38:01.829Z,25.90
2018-06-17T11:40:31.014Z,26.50
2018-06-17T11:43:00.230Z,27.10
2018-06-17T11:45:29.433Z,27.00
2018-06-17T11:47:58.666Z,27.10
2018-06-17T11:50:29.379Z,26.70
2018-06-17T11:52:58.611Z,26.80
2018-06-17T11:55:27.791Z,26.90
2018-06-17T11:57:57.003Z,26.90
2018-06-17T12:00:26.228Z,26.90
2018-06-17T12:02:55.413Z,26.90
2018-06-17T12:05:24.576Z,26.90
2018-06-17T12:07:53.719Z,26.70
2018-06-17T12:10:22.893Z,27.10
2018-06-17T12:12:52.055Z,27.30
2018-06-17T12:15:21.269Z,27.20
2018-06-17T12:17:50.483Z,27.00
2018-06-17T12:20:19.685Z,26.70
2018-06-17T12:22:48.855Z,26.70
2018-06-17T12:25:18.027Z,26.60
2018-06-17T12:27:47.197Z,26.30
2018-06-17T12:30:16.463Z,26.00
2018-06-17T12:32:45.623Z,25.90
2018-06-17T12:35:14.798Z,25.70
2018-06-17T12:37:43.963Z,25.50
2018-06-17T12:40:13.243Z,25.00
2018-06-17T12:42:42.395Z,24.70
2018-06-17T12:45:11.610Z,24.60
2018-06-17T12:47:40.760Z,24.20
2018-06-17T12:50:09.947Z,23.90
2018-06-17T12:55:07.882Z,23.50
2018-06-17T12:57:37.099Z,23.40
2018-06-17T13:00:06.710Z,23.20
2018-06-17T13:02:36.174Z,23.10
2018-06-17T13:05:05.858Z,22.90
2018-06-17T13:07:35.041Z,22.80
2018-06-17T13:10:04.461Z,22.60
2018-06-17T13:12:33.639Z,22.60
2018-06-17T13:15:02.876Z,22.60
2018-06-17T13:17:32.092Z,22.50
2018-06-17T13:20:01.336Z,22.50
2018-06-17T13:22:30.614Z,22.60
2018-06-17T13:24:59.809Z,22.60
2018-06-17T13:27:29.037Z,22.90
2018-06-17T13:29:58.347Z,23.10
2018-06-17T13:32:27.884Z,23.20
2018-06-17T13:34:57.092Z,23.30
2018-06-17T13:37:26.287Z,23.20
2018-06-17T13:39:55.507Z,23.30
2018-06-17T13:42:24.683Z,23.20
2018-06-17T13:44:53.887Z,23.30
2018-06-17T13:47:23.073Z,23.40
2018-06-17T13:49:52.398Z,23.30
2018-06-17T13:52:21.595Z,23.20
2018-06-17T13:54:51.714Z,23.20
2018-06-17T13:57:20.900Z,23.30
2018-06-17T13:59:50.872Z,23.40
2018-06-17T14:02:20.076Z,23.30
2018-06-17T14:04:49.259Z,23.30
2018-06-17T14:07:18.478Z,23.30
2018-06-17T14:09:47.763Z,23.30
2018-06-17T14:12:16.970Z,23.30
2018-06-17T14:14:46.179Z,23.30
2018-06-17T14:17:15.402Z,23.30
2018-06-17T14:19:45.072Z,23.20
2018-06-17T14:22:14.259Z,23.10
2018-06-17T14:24:43.478Z,23.10
2018-06-17T14:27:12.682Z,23.00
2018-06-17T14:29:41.874Z,23.00
2018-06-17T14:32:11.383Z,22.90
2018-06-17T14:34:40.724Z,22.90
2018-06-17T14:37:09.935Z,22.90
2018-06-17T14:39:39.438Z,22.80
2018-06-17T14:42:14.031Z,22.80
2018-06-17T14:44:48.551Z,22.80
2018-06-17T14:47:23.139Z,22.80
2018-06-17T14:49:57.984Z,22.90
2018-06-17T14:52:31.405Z,22.90
2018-06-17T14:55:00.603Z,22.90
2018-06-17T14:57:29.856Z,22.70
2018-06-17T15:00:00.129Z,22.60
2018-06-17T15:02:29.371Z,22.50
2018-06-17T15:04:58.547Z,22.40
2018-06-17T15:07:27.756Z,22.40
2018-06-17T15:09:57.029Z,22.30
2018-06-17T15:12:26.297Z,22.30
2018-06-17T15:14:55.506Z,22.20
2018-06-17T15:17:24.751Z,22.10
2018-06-17T15:19:53.950Z,22.00
2018-06-17T15:22:23.190Z,21.90
2018-06-17T15:24:52.360Z,21.90
2018-06-17T15:27:21.580Z,21.90
2018-06-17T15:29:50.787Z,21.90
2018-06-17T15:32:25.390Z,21.90
2018-06-17T15:34:59.712Z,21.80
2018-06-17T15:38:33.084Z,21.90
2018-06-17T15:41:07.586Z,21.90
2018-06-17T15:43:36.794Z,21.80
2018-06-17T15:46:06.164Z,21.90
2018-06-17T15:48:35.842Z,22.00
2018-06-17T15:51:05.006Z,22.30
2018-06-17T15:53:34.218Z,22.40
2018-06-17T15:56:03.432Z,22.30
2018-06-17T15:58:33.435Z,22.30
2018-06-17T16:01:02.627Z,22.30
2018-06-17T16:03:31.927Z,22.30
2018-06-17T16:06:01.116Z,22.20
2018-06-17T16:08:30.320Z,22.20
2018-06-17T16:10:59.622Z,22.20
2018-06-17T16:13:34.267Z,22.20
2018-06-17T16:16:08.803Z,22.20
2018-06-17T16:18:43.294Z,22.20
2018-06-17T16:21:13.319Z,22.20
2018-06-17T16:23:42.508Z,22.20
2018-06-17T16:26:11.703Z,22.30
2018-06-17T16:28:40.902Z,22.20
2018-06-17T16:31:10.088Z,22.10
2018-06-17T16:36:08.444Z,21.80
2018-06-17T16:38:37.652Z,21.60
2018-06-17T16:41:06.847Z,21.50
2018-06-17T16:43:36.076Z,21.50
2018-06-17T16:46:05.287Z,21.40
2018-06-17T16:48:34.499Z,21.40
2018-06-17T16:51:09.059Z,21.30
2018-06-17T16:53:44.434Z,21.20
2018-06-17T16:56:19.117Z,21.30
2018-06-17T16:58:53.658Z,21.30
2018-06-17T17:01:23.062Z,21.30
2018-06-17T17:03:53.634Z,21.30
2018-06-17T17:06:22.828Z,21.30
2018-06-17T17:08:52.085Z,21.10
2018-06-17T17:11:21.428Z,21.10
2018-06-17T17:13:50.604Z,21.10
2018-06-17T17:16:19.850Z,21.00
2018-06-17T17:18:49.035Z,21.00
2018-06-17T17:21:18.338Z,21.00
2018-06-17T17:23:48.343Z,20.90
2018-06-17T17:26:17.543Z,20.90
2018-06-17T17:28:46.712Z,20.90
2018-06-17T17:31:15.976Z,20.80
2018-06-17T17:33:50.519Z,20.80
2018-06-17T17:36:25.254Z,20.80
2018-06-17T17:38:59.948Z,20.80
2018-06-17T17:41:29.480Z,20.70
2018-06-17T17:43:58.847Z,20.30
2018-06-17T17:46:34.319Z,20.30
2018-06-17T17:49:03.518Z,20.10
2018-06-17T17:51:32.902Z,20.20
2018-06-17T17:54:02.199Z,20.10
2018-06-17T17:56:31.540Z,19.60
2018-06-17T17:59:00.899Z,19.10
2018-06-17T18:01:30.368Z,18.80
2018-06-17T18:03:59.691Z,18.70
2018-06-17T18:06:30.155Z,18.70
2018-06-17T18:08:59.367Z,18.50
2018-06-17T18:11:28.684Z,18.70
2018-06-17T18:13:57.859Z,19.00
2018-06-17T18:16:27.532Z,19.10
2018-06-17T18:18:56.714Z,19.10
2018-06-17T18:21:26.479Z,19.00
2018-06-17T18:23:56.656Z,18.70
2018-06-17T18:29:06.535Z,18.90
2018-06-17T18:31:41.160Z,18.90
2018-06-17T18:34:15.743Z,18.70
2018-06-17T18:36:44.943Z,18.50
2018-06-17T18:39:14.135Z,18.30
2018-06-17T18:41:43.650Z,18.70
2018-06-17T18:44:12.943Z,19.20
2018-06-17T18:46:42.101Z,19.00
2018-06-17T18:49:11.683Z,19.00
2018-06-17T18:51:41.034Z,18.90
2018-06-17T18:54:10.969Z,18.80
2018-06-17T18:56:40.209Z,18.70
2018-06-17T18:59:09.395Z,18.80
2018-06-17T19:01:38.584Z,18.90
2018-06-17T19:04:07.815Z,18.90
2018-06-17T19:06:37.668Z,18.80
2018-06-17T19:09:13.550Z,18.80
2018-06-17T19:11:48.986Z,18.80
2018-06-17T19:14:23.508Z,18.70
2018-06-17T19:16:58.587Z,18.70
2018-06-17T19:19:27.808Z,18.70
2018-06-17T19:21:58.820Z,18.60
2018-06-17T19:24:28.048Z,18.60
2018-06-17T19:26:57.286Z,18.60
2018-06-17T19:29:26.558Z,18.50
2018-06-17T19:31:55.767Z,18.20
2018-06-17T19:34:25.002Z,18.20
2018-06-17T19:36:54.217Z,18.30
2018-06-17T19:39:24.108Z,18.30
2018-06-17T19:41:53.331Z,18.40
2018-06-17T19:44:23.475Z,18.40
2018-06-17T19:46:52.699Z,18.40
2018-06-17T19:49:26.174Z,18.40
2018-06-17T19:52:00.579Z,18.30
2018-06-17T19:54:35.299Z,18.40
2018-06-17T19:57:10.040Z,18.40
2018-06-17T19:59:44.655Z,18.10
2018-06-17T20:02:13.870Z,18.00
2018-06-17T20:04:43.090Z,18.20
2018-06-17T20:07:12.488Z,18.20
2018-06-17T20:09:42.337Z,18.30
2018-06-17T20:12:11.544Z,18.30
2018-06-17T20:14:40.797Z,18.40
2018-06-17T20:17:10.167Z,18.20
2018-06-17T20:19:39.349Z,18.10
2018-06-17T20:22:08.594Z,18.20
2018-06-17T20:24:37.796Z,18.20
2018-06-17T20:27:07.004Z,18.30
2018-06-17T20:29:36.203Z,18.10
2018-06-17T20:32:10.776Z,18.10
2018-06-17T20:34:45.420Z,18.10
2018-06-17T20:37:19.859Z,18.20
2018-06-17T20:39:54.419Z,18.30
2018-06-17T20:42:29.088Z,18.20
2018-06-17T20:44:58.338Z,18.00
2018-06-17T20:47:27.491Z,18.20
2018-06-17T20:49:56.675Z,18.30
2018-06-17T20:52:25.838Z,18.20
2018-06-17T20:54:55.031Z,18.00
2018-06-17T20:57:24.995Z,18.00
2018-06-17T20:59:54.191Z,18.20
2018-06-17T21:02:23.352Z,18.20
2018-06-17T21:04:52.532Z,18.30
2018-06-17T21:07:22.726Z,18.20
2018-06-17T21:09:51.920Z,18.10
2018-06-17T21:12:21.223Z,18.20
2018-06-17T21:14:50.402Z,18.30
2018-06-17T21:17:19.612Z,18.30
2018-06-17T21:19:54.171Z,18.30
2018-06-17T21:22:28.852Z,18.10
2018-06-17T21:26:06.412Z,17.90
2018-06-17T21:28:35.563Z,17.80
2018-06-17T21:31:04.758Z,17.70
2018-06-17T21:33:33.922Z,17.90
2018-06-17T21:36:03.146Z,17.90
2018-06-17T21:38:32.270Z,18.00
2018-06-17T21:41:01.464Z,18.10
2018-06-17T21:43:30.639Z,17.80
2018-06-17T21:45:59.826Z,17.90
2018-06-17T21:48:28.995Z,18.00
2018-06-17T21:50:58.186Z,18.10
2018-06-17T21:53:27.330Z,18.00
2018-06-17T21:55:56.503Z,18.00
2018-06-17T21:58:30.938Z,18.10
2018-06-17T22:01:00.121Z,18.00
2018-06-17T22:03:29.295Z,18.10
2018-06-17T22:05:58.482Z,18.00
2018-06-17T22:08:33.119Z,18.00
2018-06-17T22:11:07.717Z,18.00
2018-06-17T22:13:42.233Z,17.90
2018-06-17T22:16:16.876Z,17.90
2018-06-17T22:18:46.018Z,17.90
2018-06-17T22:21:15.223Z,17.90
2018-06-17T22:23:44.382Z,17.90
2018-06-17T22:26:13.563Z,17.90
2018-06-17T22:28:42.863Z,17.90
2018-06-17T22:31:12.009Z,17.90
2018-06-17T22:33:41.229Z,17.80
2018-06-17T22:36:10.391Z,17.70
2018-06-17T22:38:39.585Z,17.60
2018-06-17T22:41:08.751Z,17.70
2018-06-17T22:43:37.955Z,17.80
2018-06-17T22:46:07.124Z,17.80
2018-06-17T22:48:36.295Z,17.80
2018-06-17T22:51:05.494Z,17.80
2018-06-17T22:53:46.061Z,17.80
2018-06-17T22:56:20.463Z,17.80
2018-06-17T22:58:55.124Z,17.80
2018-06-17T23:01:29.620Z,17.80
2018-06-17T23:04:04.162Z,17.90
2018-06-17T23:06:38.489Z,17.90
2018-06-17T23:09:13.838Z,17.60
2018-06-17T23:11:43.726Z,17.50
2018-06-17T23:14:13.866Z,17.70
2018-06-17T23:16:43.079Z,17.80
2018-06-17T23:19:12.287Z,17.80
2018-06-17T23:21:41.414Z,17.80
2018-06-17T23:24:10.755Z,17.80
2018-06-17T23:26:39.922Z,17.80
2018-06-17T23:29:09.102Z,17.80
2018-06-17T23:31:38.363Z,17.70
2018-06-17T23:34:07.659Z,17.70
2018-06-17T23:36:36.924Z,17.70
2018-06-17T23:39:08.691Z,17.70
2018-06-17T23:41:37.859Z,17.70
2018-06-17T23:44:07.078Z,17.60
2018-06-17T23:46:41.590Z,17.60
2018-06-17T23:49:16.141Z,17.60
2018-06-17T23:51:50.627Z,17.60
2018-06-17T23:54:25.323Z,17.70
2018-06-17T23:56:54.531Z,17.70
2018-06-17T23:59:23.719Z,17.60
